Time;durP1;ratioP1;P1;durP2;ratioP2;P2;SDS_P1;SDS_P2;PMS_P1;PMS_P2;Temp;Humidity;BMP_temperature;BMP_pressure;BME280_temperature;BME280_humidity;BME280_pressure;Samples;Min_cycle;Max_cycle;Signal;HPM_P1;HPM_P2
2023/09/09 00:02:22;;;;;;;4.05;3.65;;;;;;;;;;6154545;23;20275;-89
2023/09/09 00:04:49;;;;;;;3.45;3.15;;;;;;;;;;6155256;23;20191;-89
2023/09/09 00:07:17;;;;;;;3.97;3.67;;;;;;;;;;6154888;23;20198;-90
2023/09/09 00:09:45;;;;;;;4.20;3.80;;;;;;;;;;6155324;23;20723;-89
2023/09/09 00:12:13;;;;;;;4.60;4.18;;;;;;;;;;6154932;23;20706;-89
2023/09/09 00:14:41;;;;;;;3.42;2.92;;;;;;;;;;6155025;23;20199;-90
2023/09/09 00:17:08;;;;;;;3.40;3.10;;;;;;;;;;6154722;23;20250;-90
2023/09/09 00:19:36;;;;;;;3.38;3.10;;;;;;;;;;6154963;23;20238;-89
2023/09/09 00:22:03;;;;;;;3.03;2.83;;;;;;;;;;6154835;23;20626;-90
2023/09/09 00:24:31;;;;;;;2.80;2.60;;;;;;;;;;6154795;23;20172;-90
2023/09/09 00:27:00;;;;;;;3.10;2.90;;;;;;;;;;6154950;23;20241;-90
2023/09/09 00:29:29;;;;;;;2.67;2.47;;;;;;;;;;6155091;23;20198;-88
2023/09/09 00:31:56;;;;;;;3.05;2.55;;;;;;;;;;6155148;23;20214;-89
2023/09/09 00:34:24;;;;;;;3.28;3.03;;;;;;;;;;6155202;23;20168;-89
2023/09/09 00:36:51;;;;;;;3.15;2.95;;;;;;;;;;6154939;23;20571;-89
2023/09/09 00:39:19;;;;;;;4.00;3.53;;;;;;;;;;6155387;23;20258;-90
2023/09/09 00:41:47;;;;;;;3.15;2.92;;;;;;;;;;6154733;23;20222;-90
2023/09/09 00:44:15;;;;;;;3.45;3.15;;;;;;;;;;6154122;23;20695;-90
2023/09/09 00:46:43;;;;;;;3.88;3.58;;;;;;;;;;6154915;23;20198;-89
2023/09/09 00:49:11;;;;;;;3.13;2.88;;;;;;;;;;6154746;23;20179;-90
2023/09/09 00:51:39;;;;;;;3.17;2.92;;;;;;;;;;6166874;23;20182;-88
2023/09/09 00:54:07;;;;;;;3.03;2.80;;;;;;;;;;6183020;23;20182;-87
2023/09/09 00:56:34;;;;;;;3.25;3.05;;;;;;;;;;6182607;23;20198;-88
2023/09/09 00:59:02;;;;;;;3.40;3.15;;;;;;;;;;6182944;23;20154;-88
2023/09/09 01:01:32;;;;;;;3.70;3.40;;;;;;;;;;6180017;23;20182;-90
2023/09/09 01:04:00;;;;;;;3.88;3.58;;;;;;;;;;6158371;23;20237;-90
2023/09/09 01:06:28;;;;;;;5.10;3.30;;;;;;;;;;6157233;23;20273;-90
2023/09/09 01:08:56;;;;;;;3.00;2.80;;;;;;;;;;6156105;23;20530;-90
2023/09/09 01:11:23;;;;;;;3.20;2.88;;;;;;;;;;6160284;23;20250;-90
2023/09/09 01:13:51;;;;;;;3.00;2.80;;;;;;;;;;6155467;23;20203;-89
2023/09/09 01:16:18;;;;;;;4.75;3.88;;;;;;;;;;6156679;23;20193;-89
2023/09/09 01:18:47;;;;;;;3.65;3.35;;;;;;;;;;6157201;23;20580;-89
2023/09/09 01:21:16;;;;;;;3.55;2.90;;;;;;;;;;6156971;23;20210;-89
2023/09/09 01:23:45;;;;;;;3.33;3.03;;;;;;;;;;6156623;23;20201;-89
2023/09/09 01:26:12;;;;;;;2.88;2.58;;;;;;;;;;6156755;23;20222;-89
2023/09/09 01:28:40;;;;;;;4.20;2.92;;;;;;;;;;6157249;23;20209;-89
2023/09/09 01:31:08;;;;;;;3.22;3.00;;;;;;;;;;6156643;23;20171;-89
2023/09/09 01:33:35;;;;;;;3.38;2.95;;;;;;;;;;6156757;23;20170;-90
2023/09/09 01:36:03;;;;;;;3.28;3.08;;;;;;;;;;6156476;23;20274;-88
2023/09/09 01:38:34;;;;;;;3.17;2.97;;;;;;;;;;6156479;23;20182;-90
2023/09/09 01:41:03;;;;;;;3.75;3.25;;;;;;;;;;6156746;23;20171;-89
2023/09/09 01:43:30;;;;;;;3.63;2.72;;;;;;;;;;6156703;23;20290;-89
2023/09/09 01:45:58;;;;;;;9.27;3.63;;;;;;;;;;6156355;23;20198;-89
2023/09/09 01:48:26;;;;;;;3.45;3.15;;;;;;;;;;6156875;23;20250;-90
2023/09/09 01:50:53;;;;;;;3.08;2.88;;;;;;;;;;6157472;23;20178;-89
2023/09/09 01:53:21;;;;;;;3.53;3.22;;;;;;;;;;6156796;23;20197;-89
2023/09/09 01:55:48;;;;;;;3.00;2.80;;;;;;;;;;6156660;23;20284;-89
2023/09/09 01:58:17;;;;;;;2.97;2.78;;;;;;;;;;6156926;23;20690;-90
2023/09/09 02:00:45;;;;;;;3.92;3.63;;;;;;;;;;6164822;23;20190;-89
2023/09/09 02:03:13;;;;;;;3.38;2.95;;;;;;;;;;6183789;23;20197;-89
2023/09/09 02:05:40;;;;;;;3.53;3.30;;;;;;;;;;6184195;23;20182;-89
2023/09/09 02:08:08;;;;;;;4.40;4.00;;;;;;;;;;6183820;23;20178;-89
2023/09/09 02:10:36;;;;;;;3.90;3.47;;;;;;;;;;6161036;23;20167;-89
2023/09/09 02:13:04;;;;;;;3.70;3.40;;;;;;;;;;6157755;23;20190;-90
2023/09/09 02:15:33;;;;;;;5.20;4.70;;;;;;;;;;6156609;23;20222;-89
2023/09/09 02:18:00;;;;;;;4.18;3.78;;;;;;;;;;6157438;23;20203;-90
2023/09/09 02:20:28;;;;;;;4.65;3.72;;;;;;;;;;6157012;23;20191;-91
2023/09/09 02:22:55;;;;;;;4.00;3.70;;;;;;;;;;6156251;23;20666;-89
2023/09/09 02:25:23;;;;;;;3.83;3.53;;;;;;;;;;6156162;23;20258;-89
2023/09/09 02:27:51;;;;;;;4.30;3.95;;;;;;;;;;6156784;23;20572;-90
2023/09/09 02:30:18;;;;;;;4.18;3.88;;;;;;;;;;6156538;23;20254;-90
2023/09/09 02:32:49;;;;;;;3.88;3.58;;;;;;;;;;6156000;23;20532;-90
2023/09/09 02:35:16;;;;;;;4.63;4.22;;;;;;;;;;6157237;23;20195;-89
2023/09/09 02:37:44;;;;;;;3.97;3.67;;;;;;;;;;6161325;23;20651;-90
2023/09/09 02:40:12;;;;;;;3.95;3.55;;;;;;;;;;6156841;23;20250;-89
2023/09/09 02:42:39;;;;;;;3.47;3.00;;;;;;;;;;6155876;23;20597;-90
2023/09/09 02:45:09;;;;;;;3.33;3.03;;;;;;;;;;6155727;23;20577;-90
2023/09/09 02:47:36;;;;;;;4.75;3.38;;;;;;;;;;6156196;23;20196;-89
2023/09/09 02:50:07;;;;;;;5.00;3.72;;;;;;;;;;6156306;23;20242;-89
2023/09/09 02:52:35;;;;;;;3.65;3.35;;;;;;;;;;6156640;23;20219;-90
2023/09/09 02:55:02;;;;;;;4.00;3.60;;;;;;;;;;6155912;23;20211;-89
2023/09/09 02:57:30;;;;;;;3.00;2.80;;;;;;;;;;6153639;23;20183;-90
2023/09/09 02:59:58;;;;;;;3.20;2.90;;;;;;;;;;6154148;23;20647;-90
2023/09/09 03:02:25;;;;;;;3.50;3.20;;;;;;;;;;6157754;23;20198;-90
2023/09/09 03:04:53;;;;;;;3.28;3.03;;;;;;;;;;6154702;23;20234;-89
2023/09/09 03:07:23;;;;;;;2.95;2.75;;;;;;;;;;6154465;23;20182;-89
2023/09/09 03:09:51;;;;;;;2.28;2.08;;;;;;;;;;6128081;23;20782;-90
2023/09/09 03:12:20;;;;;;;2.90;2.60;;;;;;;;;;6154731;23;20258;-89
2023/09/09 03:14:48;;;;;;;2.50;2.28;;;;;;;;;;6174141;23;20187;-88
2023/09/09 03:17:17;;;;;;;2.80;2.60;;;;;;;;;;6182540;23;20167;-88
2023/09/09 03:19:44;;;;;;;2.97;2.30;;;;;;;;;;6179854;23;20207;-88
2023/09/09 03:22:12;;;;;;;1.98;1.88;;;;;;;;;;6176210;23;20163;-86
2023/09/09 03:24:41;;;;;;;2.20;2.10;;;;;;;;;;6176256;23;20198;-89
2023/09/09 03:27:08;;;;;;;2.25;2.15;;;;;;;;;;6150251;23;20206;-89
2023/09/09 03:29:36;;;;;;;2.42;2.22;;;;;;;;;;6152955;23;20253;-89
2023/09/09 03:32:04;;;;;;;3.38;3.17;;;;;;;;;;6155817;23;20195;-92
2023/09/09 03:34:32;;;;;;;2.90;2.70;;;;;;;;;;6150240;23;20250;-88
2023/09/09 03:36:59;;;;;;;3.90;3.55;;;;;;;;;;6149969;23;20182;-90
2023/09/09 03:39:27;;;;;;;4.20;3.50;;;;;;;;;;6149109;23;20637;-90
2023/09/09 03:41:56;;;;;;;3.70;3.40;;;;;;;;;;6149019;23;20205;-88
2023/09/09 03:44:24;;;;;;;4.18;3.83;;;;;;;;;;6149713;23;20558;-90
2023/09/09 03:46:51;;;;;;;3.25;2.80;;;;;;;;;;6146316;23;20310;-91
2023/09/09 03:49:19;;;;;;;3.13;2.92;;;;;;;;;;6151355;23;20214;-89
2023/09/09 03:51:47;;;;;;;4.57;4.18;;;;;;;;;;6146807;23;20209;-90
2023/09/09 03:54:14;;;;;;;4.22;3.40;;;;;;;;;;6146280;23;20258;-89
2023/09/09 03:56:42;;;;;;;3.22;2.85;;;;;;;;;;6086129;23;1099262;-91
2023/09/09 03:59:11;;;;;;;3.83;3.13;;;;;;;;;;6142658;23;20186;-89
2023/09/09 04:01:39;;;;;;;3.88;3.55;;;;;;;;;;6149670;23;20179;-89
2023/09/09 04:04:07;;;;;;;3.13;2.90;;;;;;;;;;6148765;23;20221;-89
2023/09/09 04:06:35;;;;;;;3.47;3.17;;;;;;;;;;6147937;23;20227;-89
2023/09/09 04:09:02;;;;;;;3.58;3.20;;;;;;;;;;6148083;23;20410;-90
2023/09/09 04:11:30;;;;;;;2.78;2.58;;;;;;;;;;6149188;23;20631;-90
2023/09/09 04:13:59;;;;;;;3.17;2.88;;;;;;;;;;6149909;23;20278;-89
2023/09/09 04:16:28;;;;;;;2.88;2.58;;;;;;;;;;6149173;23;20218;-89
2023/09/09 04:18:56;;;;;;;3.17;2.97;;;;;;;;;;6148184;23;20201;-90
2023/09/09 04:21:23;;;;;;;2.40;2.22;;;;;;;;;;6147339;23;20261;-90
2023/09/09 04:23:51;;;;;;;3.53;2.78;;;;;;;;;;6149976;23;20281;-88
2023/09/09 04:26:18;;;;;;;2.72;2.53;;;;;;;;;;6150523;23;20229;-89
2023/09/09 04:28:46;;;;;;;2.63;2.42;;;;;;;;;;6148993;23;20171;-90
2023/09/09 04:31:13;;;;;;;2.95;2.75;;;;;;;;;;6148809;23;20496;-89
2023/09/09 04:33:42;;;;;;;2.80;2.47;;;;;;;;;;6148684;23;20246;-88
2023/09/09 04:36:10;;;;;;;2.65;2.30;;;;;;;;;;6148940;23;20731;-89
2023/09/09 04:38:38;;;;;;;2.58;2.38;;;;;;;;;;6148889;23;20250;-89
2023/09/09 04:41:05;;;;;;;2.75;2.55;;;;;;;;;;6147535;23;20242;-89
2023/09/09 04:43:33;;;;;;;2.60;2.40;;;;;;;;;;6148032;23;20682;-89
2023/09/09 04:45:59;;;;;;;2.67;2.47;;;;;;;;;;6147167;23;20546;-90
2023/09/09 04:48:27;;;;;;;2.05;1.95;;;;;;;;;;6147653;23;20202;-89
2023/09/09 04:50:56;;;;;;;2.75;2.40;;;;;;;;;;6148810;23;20212;-89
2023/09/09 04:53:24;;;;;;;2.50;2.30;;;;;;;;;;6148641;23;20556;-89
2023/09/09 04:55:52;;;;;;;2.75;2.55;;;;;;;;;;6149508;23;20431;-89
2023/09/09 04:58:19;;;;;;;5.85;2.85;;;;;;;;;;6149294;23;20197;-89
2023/09/09 05:00:47;;;;;;;2.53;2.22;;;;;;;;;;6150150;23;20210;-90
2023/09/09 05:03:14;;;;;;;4.30;3.92;;;;;;;;;;6149471;23;20249;-89
2023/09/09 05:05:42;;;;;;;3.22;2.90;;;;;;;;;;6149650;23;20246;-89
2023/09/09 05:08:11;;;;;;;2.50;2.30;;;;;;;;;;6149010;23;20257;-89
2023/09/09 05:10:38;;;;;;;2.50;2.30;;;;;;;;;;6149140;23;20171;-89
2023/09/09 05:13:06;;;;;;;2.10;2.00;;;;;;;;;;6148865;23;20171;-89
2023/09/09 05:15:35;;;;;;;1.88;1.77;;;;;;;;;;6149374;23;20321;-90
2023/09/09 05:18:03;;;;;;;2.28;2.15;;;;;;;;;;6149363;23;20207;-89
2023/09/09 05:20:30;;;;;;;2.28;2.17;;;;;;;;;;6151272;23;20221;-91
2023/09/09 05:22:58;;;;;;;2.35;2.15;;;;;;;;;;6156729;23;20252;-90
2023/09/09 05:25:27;;;;;;;2.05;1.95;;;;;;;;;;6156848;23;20270;-90
2023/09/09 05:27:55;;;;;;;2.65;2.45;;;;;;;;;;6157638;23;20171;-90
2023/09/09 05:30:23;;;;;;;2.70;2.50;;;;;;;;;;6158362;23;20217;-90
2023/09/09 05:32:50;;;;;;;2.75;2.55;;;;;;;;;;6156401;23;20674;-89
2023/09/09 05:35:18;;;;;;;3.28;2.97;;;;;;;;;;6156654;23;20214;-89
2023/09/09 05:37:47;;;;;;;2.85;2.65;;;;;;;;;;6156833;23;20556;-90
2023/09/09 05:40:14;;;;;;;3.53;2.60;;;;;;;;;;6155565;23;20674;-90
2023/09/09 05:42:43;;;;;;;2.72;2.53;;;;;;;;;;6156180;23;20187;-89
2023/09/09 05:45:11;;;;;;;3.30;3.00;;;;;;;;;;6156086;23;20258;-90
2023/09/09 05:47:39;;;;;;;2.97;2.78;;;;;;;;;;6156518;23;20171;-90
2023/09/09 05:50:07;;;;;;;3.13;2.80;;;;;;;;;;6174703;23;20195;-89
2023/09/09 05:52:35;;;;;;;2.80;2.60;;;;;;;;;;6184427;23;20163;-87
2023/09/09 05:55:02;;;;;;;2.50;2.30;;;;;;;;;;6184400;23;20179;-88
2023/09/09 05:57:32;;;;;;;3.15;2.65;;;;;;;;;;6184860;23;20188;-88
2023/09/09 06:00:02;;;;;;;2.75;2.55;;;;;;;;;;6184360;23;20159;-88
2023/09/09 06:02:29;;;;;;;3.38;2.97;;;;;;;;;;6172727;23;20209;-90
2023/09/09 06:04:57;;;;;;;4.53;3.90;;;;;;;;;;6160829;23;20210;-90
2023/09/09 06:07:25;;;;;;;4.35;3.95;;;;;;;;;;6159628;23;20206;-90
2023/09/09 06:09:52;;;;;;;4.30;3.90;;;;;;;;;;6158991;23;20599;-90
2023/09/09 06:12:20;;;;;;;4.32;4.03;;;;;;;;;;6160932;23;20171;-90
2023/09/09 06:14:48;;;;;;;4.93;4.53;;;;;;;;;;6157624;23;20187;-89
2023/09/09 06:17:16;;;;;;;4.35;4.05;;;;;;;;;;6157328;23;20246;-90
2023/09/09 06:19:44;;;;;;;3.97;3.67;;;;;;;;;;6157481;23;20175;-90
2023/09/09 06:22:12;;;;;;;3.50;3.20;;;;;;;;;;6156742;23;20518;-90
2023/09/09 06:24:39;;;;;;;3.42;3.22;;;;;;;;;;6156488;23;20278;-91
2023/09/09 06:27:07;;;;;;;3.50;3.20;;;;;;;;;;6156344;23;20698;-90
2023/09/09 06:29:34;;;;;;;3.50;3.20;;;;;;;;;;6156307;23;20210;-90
2023/09/09 06:32:03;;;;;;;3.10;2.90;;;;;;;;;;6175189;23;20171;-90
2023/09/09 06:34:32;;;;;;;3.38;3.08;;;;;;;;;;6181586;23;20182;-89
2023/09/09 06:37:09;;;;;;;3.33;3.03;;;;;;;;;;6182534;23;20175;-89
2023/09/09 06:39:37;;;;;;;3.72;3.42;;;;;;;;;;6168643;23;20167;-89
2023/09/09 06:42:06;;;;;;;3.08;2.88;;;;;;;;;;6157162;23;20195;-90
2023/09/09 06:44:34;;;;;;;3.53;3.22;;;;;;;;;;6155530;23;20190;-89
2023/09/09 06:47:01;;;;;;;5.75;4.72;;;;;;;;;;6156541;23;20190;-89
2023/09/09 06:49:29;;;;;;;4.75;4.25;;;;;;;;;;6156547;23;20183;-89
2023/09/09 06:51:58;;;;;;;6.85;5.63;;;;;;;;;;6156857;23;20178;-90
2023/09/09 06:54:26;;;;;;;5.30;4.57;;;;;;;;;;6156333;23;20179;-89
2023/09/09 06:56:54;;;;;;;4.90;4.40;;;;;;;;;;6156466;23;20179;-90
2023/09/09 06:59:21;;;;;;;5.40;4.90;;;;;;;;;;6155928;23;20250;-89
2023/09/09 07:01:49;;;;;;;5.75;5.00;;;;;;;;;;6156066;23;20175;-90
2023/09/09 07:04:16;;;;;;;4.30;3.90;;;;;;;;;;6156379;23;20191;-90
2023/09/09 07:06:44;;;;;;;5.50;5.00;;;;;;;;;;6156088;23;20199;-90
2023/09/09 07:09:13;;;;;;;5.53;5.03;;;;;;;;;;6155987;23;20568;-89
2023/09/09 07:11:41;;;;;;;3.85;3.55;;;;;;;;;;6155460;23;20171;-90
2023/09/09 07:14:08;;;;;;;5.90;4.68;;;;;;;;;;6156083;23;20229;-89
2023/09/09 07:16:36;;;;;;;4.50;4.00;;;;;;;;;;6155464;23;20605;-90
2023/09/09 07:19:03;;;;;;;5.38;3.88;;;;;;;;;;6155989;23;20194;-89
2023/09/09 07:21:31;;;;;;;6.53;5.60;;;;;;;;;;6155733;23;20623;-89
2023/09/09 07:23:59;;;;;;;7.88;7.13;;;;;;;;;;6156345;23;20235;-89
2023/09/09 07:26:28;;;;;;;5.93;4.13;;;;;;;;;;6155917;23;20654;-91
2023/09/09 07:28:57;;;;;;;5.22;4.45;;;;;;;;;;6155761;23;20182;-89
2023/09/09 07:31:25;;;;;;;6.05;5.45;;;;;;;;;;6155753;23;20218;-90
2023/09/09 07:33:53;;;;;;;6.18;5.57;;;;;;;;;;6155830;23;20178;-89
2023/09/09 07:36:21;;;;;;;5.35;4.85;;;;;;;;;;6156185;23;20191;-90
2023/09/09 07:38:49;;;;;;;6.75;4.82;;;;;;;;;;6155647;23;20249;-90
2023/09/09 07:41:16;;;;;;;6.95;4.53;;;;;;;;;;6155930;23;20174;-89
2023/09/09 07:43:45;;;;;;;4.53;4.13;;;;;;;;;;6155643;23;20577;-89
2023/09/09 07:46:13;;;;;;;9.07;4.45;;;;;;;;;;6156061;23;20285;-89
2023/09/09 07:48:40;;;;;;;5.15;4.65;;;;;;;;;;6155794;23;20250;-89
2023/09/09 07:51:08;;;;;;;4.80;4.43;;;;;;;;;;6155519;23;20176;-89
2023/09/09 07:53:36;;;;;;;5.93;5.43;;;;;;;;;;6155232;23;20242;-90
2023/09/09 07:56:04;;;;;;;6.88;5.70;;;;;;;;;;6155219;23;20273;-90
2023/09/09 07:58:31;;;;;;;7.22;4.72;;;;;;;;;;6154914;23;20217;-89
2023/09/09 08:01:04;;;;;;;6.88;4.65;;;;;;;;;;6154757;23;20171;-90
2023/09/09 08:03:32;;;;;;;6.65;5.32;;;;;;;;;;6155315;23;20626;-89
2023/09/09 08:06:04;;;;;;;5.00;4.60;;;;;;;;;;6155611;23;20286;-88
2023/09/09 08:08:32;;;;;;;6.15;5.55;;;;;;;;;;6155374;23;20175;-89
2023/09/09 08:11:00;;;;;;;7.22;5.30;;;;;;;;;;6154797;23;20179;-89
2023/09/09 08:13:28;;;;;;;5.35;4.28;;;;;;;;;;6154808;23;20228;-89
2023/09/09 08:15:57;;;;;;;6.05;5.22;;;;;;;;;;6154802;23;20686;-89
2023/09/09 08:18:26;;;;;;;5.78;4.63;;;;;;;;;;6155399;23;20234;-89
2023/09/09 08:20:54;;;;;;;3.90;3.60;;;;;;;;;;6155819;23;20199;-90
2023/09/09 08:23:23;;;;;;;6.82;4.93;;;;;;;;;;6155196;23;20246;-89
2023/09/09 08:25:51;;;;;;;6.35;5.18;;;;;;;;;;6155290;23;20199;-88
2023/09/09 08:28:18;;;;;;;5.60;4.97;;;;;;;;;;6154958;23;20239;-89
2023/09/09 08:30:46;;;;;;;5.68;5.10;;;;;;;;;;6157340;23;20183;-89
2023/09/09 08:33:13;;;;;;;5.70;5.20;;;;;;;;;;6169018;23;20175;-89
2023/09/09 08:35:42;;;;;;;4.80;4.40;;;;;;;;;;6182504;23;20188;-86
2023/09/09 08:38:09;;;;;;;4.70;4.20;;;;;;;;;;6183202;23;20183;-87
2023/09/09 08:40:46;;;;;;;6.70;6.10;;;;;;;;;;6183002;23;20178;-87
2023/09/09 08:43:20;;;;;;;5.68;5.18;;;;;;;;;;6182485;23;20185;-87
2023/09/09 08:45:57;;;;;;;5.70;5.10;;;;;;;;;;6165014;23;20203;-90
2023/09/09 08:48:25;;;;;;;4.22;3.83;;;;;;;;;;6157262;23;20194;-89
2023/09/09 08:50:56;;;;;;;6.10;5.28;;;;;;;;;;6161888;23;20203;-88
2023/09/09 08:53:28;;;;;;;5.40;4.90;;;;;;;;;;6156373;23;20187;-88
2023/09/09 08:55:57;;;;;;;5.07;4.38;;;;;;;;;;6156361;23;20205;-88
2023/09/09 08:58:26;;;;;;;4.93;4.50;;;;;;;;;;6160068;23;20202;-90
2023/09/09 09:00:54;;;;;;;5.65;5.03;;;;;;;;;;6155379;23;20706;-90
2023/09/09 09:03:22;;;;;;;4.25;3.92;;;;;;;;;;6155338;23;20183;-88
2023/09/09 09:05:51;;;;;;;3.63;3.33;;;;;;;;;;6155171;23;20233;-88
2023/09/09 09:08:19;;;;;;;3.78;3.47;;;;;;;;;;6154853;23;20300;-88
2023/09/09 09:10:47;;;;;;;4.03;3.63;;;;;;;;;;6155010;23;20254;-89
2023/09/09 09:13:15;;;;;;;3.67;3.33;;;;;;;;;;6154940;23;20182;-88
2023/09/09 09:15:43;;;;;;;4.82;4.43;;;;;;;;;;6154882;23;20269;-89
2023/09/09 09:18:11;;;;;;;5.00;4.50;;;;;;;;;;6155612;23;20560;-89
2023/09/09 09:20:40;;;;;;;4.72;4.32;;;;;;;;;;6155448;23;20540;-88
2023/09/09 09:23:12;;;;;;;4.97;4.57;;;;;;;;;;6154958;23;20639;-89
2023/09/09 09:25:44;;;;;;;3.28;3.08;;;;;;;;;;6155137;23;20672;-88
2023/09/09 09:28:14;;;;;;;4.68;3.92;;;;;;;;;;6155495;23;20184;-89
2023/09/09 09:30:42;;;;;;;6.20;3.75;;;;;;;;;;6155948;23;20202;-89
2023/09/09 09:33:10;;;;;;;4.53;4.13;;;;;;;;;;6154774;23;20214;-88
2023/09/09 09:35:37;;;;;;;4.15;3.85;;;;;;;;;;6155384;23;20266;-88
2023/09/09 09:38:09;;;;;;;3.95;3.55;;;;;;;;;;6156721;23;20717;-87
2023/09/09 09:40:37;;;;;;;4.18;3.78;;;;;;;;;;6156730;23;20174;-89
2023/09/09 09:43:06;;;;;;;4.50;4.10;;;;;;;;;;6156987;23;20167;-90
2023/09/09 09:45:34;;;;;;;5.03;4.50;;;;;;;;;;6157092;23;20714;-89
2023/09/09 09:48:01;;;;;;;5.10;4.70;;;;;;;;;;6156992;23;20741;-89
2023/09/09 09:50:32;;;;;;;4.45;4.05;;;;;;;;;;6156594;23;20194;-89
2023/09/09 09:53:01;;;;;;;3.70;3.40;;;;;;;;;;6156981;23;20168;-89
2023/09/09 09:55:30;;;;;;;4.18;3.60;;;;;;;;;;6156491;23;20570;-89
2023/09/09 09:57:59;;;;;;;4.00;3.70;;;;;;;;;;6156907;23;20651;-88
2023/09/09 10:00:29;;;;;;;4.00;3.60;;;;;;;;;;6156315;23;20246;-88
2023/09/09 10:02:59;;;;;;;3.95;3.65;;;;;;;;;;6156616;23;20567;-88
2023/09/09 10:05:29;;;;;;;3.75;3.45;;;;;;;;;;6156225;23;20267;-88
2023/09/09 10:08:04;;;;;;;5.25;3.85;;;;;;;;;;6156153;23;20195;-88
2023/09/09 10:10:34;;;;;;;4.38;3.72;;;;;;;;;;6156198;23;20174;-89
2023/09/09 10:13:06;;;;;;;4.15;3.85;;;;;;;;;;6155989;23;20218;-88
2023/09/09 10:15:36;;;;;;;3.03;2.83;;;;;;;;;;6156366;23;20187;-88
2023/09/09 10:18:05;;;;;;;3.58;3.28;;;;;;;;;;6156515;23;20163;-89
2023/09/09 10:20:33;;;;;;;3.55;3.33;;;;;;;;;;6156499;23;20241;-88
2023/09/09 10:23:02;;;;;;;3.58;3.28;;;;;;;;;;6157330;23;20253;-89
2023/09/09 10:25:31;;;;;;;3.28;2.97;;;;;;;;;;6158398;23;20286;-89
2023/09/09 10:27:59;;;;;;;4.07;3.15;;;;;;;;;;6156820;23;20269;-90
2023/09/09 10:30:29;;;;;;;4.45;4.05;;;;;;;;;;6156667;23;20562;-90
2023/09/09 10:33:02;;;;;;;4.78;3.20;;;;;;;;;;6155823;23;20202;-89
2023/09/09 10:35:30;;;;;;;4.25;3.58;;;;;;;;;;6156559;23;20210;-90
2023/09/09 10:37:58;;;;;;;4.75;4.35;;;;;;;;;;6156761;23;20246;-90
2023/09/09 10:40:27;;;;;;;3.47;3.17;;;;;;;;;;6155917;23;20167;-89
2023/09/09 10:42:55;;;;;;;4.10;3.50;;;;;;;;;;6156432;23;20207;-89
2023/09/09 10:45:27;;;;;;;3.90;3.60;;;;;;;;;;6158533;23;20214;-90
2023/09/09 10:47:59;;;;;;;3.75;3.20;;;;;;;;;;6158613;23;20596;-88
2023/09/09 10:50:40;;;;;;;4.47;3.65;;;;;;;;;;6156470;23;20171;-89
2023/09/09 10:53:16;;;;;;;4.50;3.67;;;;;;;;;;6156144;23;20238;-89
2023/09/09 10:55:44;;;;;;;3.75;3.45;;;;;;;;;;6158955;23;20686;-89
2023/09/09 10:58:17;;;;;;;3.72;3.40;;;;;;;;;;6155898;23;20537;-89
2023/09/09 11:00:47;;;;;;;3.28;3.08;;;;;;;;;;6156271;23;20577;-89
2023/09/09 11:03:18;;;;;;;3.10;2.80;;;;;;;;;;6177806;23;20227;-88
2023/09/09 11:06:05;;;;;;;3.60;3.30;;;;;;;;;;6182617;23;20186;-87
2023/09/09 11:08:36;;;;;;;3.25;2.85;;;;;;;;;;6175158;23;20261;-88
2023/09/09 11:11:13;;;;;;;4.15;3.85;;;;;;;;;;6157150;23;20151;-89
2023/09/09 11:13:50;;;;;;;3.80;3.50;;;;;;;;;;6173196;23;20162;-87
2023/09/09 11:16:32;;;;;;;2.90;2.70;;;;;;;;;;6183734;23;20235;-89
2023/09/09 11:19:06;;;;;;;3.08;2.88;;;;;;;;;;6184079;23;20151;-88
2023/09/09 11:21:36;;;;;;;4.63;4.22;;;;;;;;;;6183238;23;20150;-88
2023/09/09 11:24:05;;;;;;;4.40;4.10;;;;;;;;;;6179384;23;20167;-88
2023/09/09 11:26:32;;;;;;;4.10;3.80;;;;;;;;;;6158886;23;20593;-89
2023/09/09 11:29:01;;;;;;;6.60;4.20;;;;;;;;;;6159372;23;20277;-90
2023/09/09 11:31:30;;;;;;;3.92;3.63;;;;;;;;;;6157787;23;20221;-89
2023/09/09 11:33:59;;;;;;;3.65;3.35;;;;;;;;;;6158061;23;20179;-89
2023/09/09 11:36:28;;;;;;;3.70;3.42;;;;;;;;;;6156373;23;20678;-89
2023/09/09 11:38:57;;;;;;;3.20;3.00;;;;;;;;;;6156013;23;20208;-90
2023/09/09 11:41:27;;;;;;;3.92;3.10;;;;;;;;;;6155906;23;20174;-89
2023/09/09 11:43:59;;;;;;;3.13;2.92;;;;;;;;;;6156249;23;20249;-89
2023/09/09 11:46:29;;;;;;;2.83;2.63;;;;;;;;;;6155519;23;20265;-89
2023/09/09 11:48:56;;;;;;;3.22;2.67;;;;;;;;;;6156037;23;20221;-91
2023/09/09 11:51:25;;;;;;;2.78;2.58;;;;;;;;;;6155689;23;20213;-90
2023/09/09 11:53:53;;;;;;;3.40;3.20;;;;;;;;;;6156046;23;20202;-89
2023/09/09 11:56:21;;;;;;;3.25;3.05;;;;;;;;;;6155894;23;20277;-90
2023/09/09 11:58:50;;;;;;;3.35;3.15;;;;;;;;;;6155839;23;20253;-90
2023/09/09 12:01:20;;;;;;;3.33;3.13;;;;;;;;;;6155720;23;20199;-89
2023/09/09 12:03:49;;;;;;;3.80;3.50;;;;;;;;;;6155784;23;20695;-89
2023/09/09 12:06:18;;;;;;;3.72;3.42;;;;;;;;;;6155431;23;20191;-88
2023/09/09 12:08:48;;;;;;;3.78;3.40;;;;;;;;;;6155605;23;20273;-88
2023/09/09 12:11:17;;;;;;;5.43;3.75;;;;;;;;;;6155255;23;20174;-88
2023/09/09 12:13:45;;;;;;;3.58;3.28;;;;;;;;;;6155617;23;20170;-89
2023/09/09 12:16:13;;;;;;;3.80;3.50;;;;;;;;;;6155251;23;20262;-89
2023/09/09 12:18:40;;;;;;;3.80;3.55;;;;;;;;;;6155614;23;20259;-90
2023/09/09 12:21:10;;;;;;;3.88;3.58;;;;;;;;;;6155313;23;20254;-89
2023/09/09 12:23:40;;;;;;;3.53;3.30;;;;;;;;;;6155382;23;20198;-89
2023/09/09 12:26:13;;;;;;;3.55;3.35;;;;;;;;;;6155070;23;20269;-89
2023/09/09 12:28:42;;;;;;;3.55;3.33;;;;;;;;;;6155493;23;20258;-90
2023/09/09 12:31:10;;;;;;;3.00;2.80;;;;;;;;;;6155089;23;20319;-89
2023/09/09 12:33:41;;;;;;;2.92;2.72;;;;;;;;;;6155480;23;20231;-90
2023/09/09 12:36:16;;;;;;;3.30;3.10;;;;;;;;;;6155103;23;20573;-90
2023/09/09 12:38:46;;;;;;;3.47;3.17;;;;;;;;;;6155155;23;20189;-90
2023/09/09 12:41:19;;;;;;;3.25;2.97;;;;;;;;;;6154964;23;20909;-89
2023/09/09 12:43:47;;;;;;;3.40;3.20;;;;;;;;;;6155405;23;20165;-90
2023/09/09 12:46:16;;;;;;;3.50;3.20;;;;;;;;;;6154493;23;20222;-90
2023/09/09 12:48:55;;;;;;;3.03;2.83;;;;;;;;;;6155168;23;20285;-89
2023/09/09 12:51:26;;;;;;;2.90;2.70;;;;;;;;;;6154781;23;20565;-90
2023/09/09 12:53:53;;;;;;;3.85;3.55;;;;;;;;;;6155292;23;20612;-90
2023/09/09 12:56:22;;;;;;;2.78;2.58;;;;;;;;;;6155193;23;20273;-90
2023/09/09 12:58:50;;;;;;;2.90;2.70;;;;;;;;;;6154766;23;20254;-88
2023/09/09 13:01:18;;;;;;;2.60;2.45;;;;;;;;;;6155046;23;20564;-89
2023/09/09 13:03:46;;;;;;;2.60;2.40;;;;;;;;;;6155406;23;20206;-90
2023/09/09 13:06:13;;;;;;;2.30;2.20;;;;;;;;;;6154942;23;20587;-90
2023/09/09 13:08:41;;;;;;;2.25;2.15;;;;;;;;;;6154280;23;20269;-90
2023/09/09 13:11:08;;;;;;;3.42;2.65;;;;;;;;;;6156174;23;20254;-89
2023/09/09 13:13:38;;;;;;;3.28;3.08;;;;;;;;;;6157198;23;20175;-89
2023/09/09 13:16:06;;;;;;;2.80;2.60;;;;;;;;;;6156636;23;20370;-90
2023/09/09 13:18:34;;;;;;;3.35;2.90;;;;;;;;;;6157347;23;20249;-89
2023/09/09 13:21:02;;;;;;;3.53;3.22;;;;;;;;;;6156673;23;20249;-88
2023/09/09 13:23:30;;;;;;;3.47;2.88;;;;;;;;;;6158105;23;20209;-89
2023/09/09 13:25:57;;;;;;;3.35;3.10;;;;;;;;;;6160398;23;20191;-90
2023/09/09 13:28:25;;;;;;;3.00;2.80;;;;;;;;;;6158715;23;20194;-89
2023/09/09 13:30:54;;;;;;;2.65;2.45;;;;;;;;;;6156768;23;20565;-89
2023/09/09 13:33:21;;;;;;;3.42;3.22;;;;;;;;;;6157030;23;20552;-89
2023/09/09 13:35:49;;;;;;;2.80;2.60;;;;;;;;;;6157371;23;20523;-90
2023/09/09 13:38:16;;;;;;;2.78;2.58;;;;;;;;;;6158728;23;20171;-87
2023/09/09 13:40:44;;;;;;;2.58;2.45;;;;;;;;;;6184632;23;20185;-88
2023/09/09 13:43:11;;;;;;;2.63;2.42;;;;;;;;;;6184683;23;20151;-87
2023/09/09 13:45:39;;;;;;;2.67;2.47;;;;;;;;;;6184788;23;20182;-88
2023/09/09 13:48:08;;;;;;;2.75;2.55;;;;;;;;;;6184848;23;20167;-88
2023/09/09 13:50:36;;;;;;;2.97;2.20;;;;;;;;;;6163272;23;20686;-89
2023/09/09 13:53:04;;;;;;;3.50;3.20;;;;;;;;;;6159888;23;20236;-90
2023/09/09 13:55:31;;;;;;;3.58;3.28;;;;;;;;;;6158772;23;20190;-89
2023/09/09 13:57:59;;;;;;;3.63;3.38;;;;;;;;;;6158125;23;20257;-90
2023/09/09 14:00:26;;;;;;;2.70;2.50;;;;;;;;;;6157480;23;20250;-89
2023/09/09 14:02:54;;;;;;;3.42;3.13;;;;;;;;;;6157059;23;20250;-90
2023/09/09 14:05:23;;;;;;;3.30;3.10;;;;;;;;;;6156597;23;20275;-89
2023/09/09 14:07:50;;;;;;;2.55;2.35;;;;;;;;;;6156907;23;20266;-90
2023/09/09 14:10:18;;;;;;;2.40;2.30;;;;;;;;;;6156575;23;20502;-90
2023/09/09 14:12:46;;;;;;;2.42;2.33;;;;;;;;;;6156461;23;20250;-90
2023/09/09 14:15:15;;;;;;;2.15;1.95;;;;;;;;;;6156368;23;20585;-89
2023/09/09 14:17:42;;;;;;;2.20;2.10;;;;;;;;;;6156408;23;20171;-90
2023/09/09 14:20:11;;;;;;;2.38;2.28;;;;;;;;;;6156409;23;20255;-90
2023/09/09 14:22:40;;;;;;;2.40;2.20;;;;;;;;;;6156239;23;20242;-90
2023/09/09 14:25:09;;;;;;;2.50;2.30;;;;;;;;;;6156224;23;20197;-90
2023/09/09 14:27:37;;;;;;;2.17;2.08;;;;;;;;;;6156508;23;20268;-90
2023/09/09 14:30:05;;;;;;;2.22;2.13;;;;;;;;;;6156311;23;20217;-89
2023/09/09 14:32:32;;;;;;;2.20;2.10;;;;;;;;;;6156163;23;20245;-90
2023/09/09 14:35:00;;;;;;;2.83;2.20;;;;;;;;;;6156303;23;20536;-90
2023/09/09 14:37:28;;;;;;;2.67;2.47;;;;;;;;;;6156214;23;20227;-89
2023/09/09 14:39:57;;;;;;;2.58;2.38;;;;;;;;;;6158473;23;20253;-89
2023/09/09 14:42:24;;;;;;;1.80;1.70;;;;;;;;;;6156356;23;20250;-90
2023/09/09 14:44:52;;;;;;;1.95;1.85;;;;;;;;;;6156475;23;20604;-89
2023/09/09 14:47:20;;;;;;;2.45;2.30;;;;;;;;;;6156414;23;20186;-89
2023/09/09 14:49:47;;;;;;;2.35;2.25;;;;;;;;;;6156075;23;20278;-90
2023/09/09 14:52:15;;;;;;;2.55;2.35;;;;;;;;;;6156236;23;20579;-90